createdAt,value
2019-04-28T00:01:23.799Z,36.29
2019-04-28T00:03:51.620Z,36.29
2019-04-28T00:06:17.081Z,36.32
2019-04-28T00:08:43.733Z,36.29
2019-04-28T00:11:11.716Z,36.24
2019-04-28T00:13:37.012Z,36.32
2019-04-28T00:16:03.647Z,36.27
2019-04-28T00:18:31.682Z,36.32
2019-04-28T00:20:56.942Z,36.35
2019-04-28T00:23:23.584Z,36.39
2019-04-28T00:25:51.433Z,36.22
2019-04-28T00:28:17.175Z,36.26
2019-04-28T00:33:11.714Z,36.36
2019-04-28T00:35:37.109Z,36.28
2019-04-28T00:38:03.741Z,36.29
2019-04-28T00:40:31.649Z,36.35
2019-04-28T00:42:57.062Z,36.37
2019-04-28T00:45:23.713Z,36.38
2019-04-28T00:47:51.066Z,36.39
2019-04-28T00:50:16.995Z,36.42
2019-04-28T00:55:11.058Z,36.37
2019-04-28T00:57:36.942Z,36.40
2019-04-28T01:00:03.579Z,36.36
2019-04-28T01:02:31.215Z,36.37
2019-04-28T01:04:56.868Z,36.42
2019-04-28T01:07:23.543Z,36.37
2019-04-28T01:09:51.671Z,36.32
2019-04-28T01:12:16.844Z,36.40
2019-04-28T01:14:43.612Z,36.40
2019-04-28T01:17:10.135Z,36.42
2019-04-28T01:19:36.771Z,36.44
2019-04-28T01:22:03.410Z,36.39
2019-04-28T01:24:30.062Z,36.47
2019-04-28T01:29:23.388Z,36.48
2019-04-28T01:31:50.035Z,36.38
2019-04-28T01:34:16.679Z,36.41
2019-04-28T01:36:43.315Z,36.52
2019-04-28T01:39:10.163Z,36.36
2019-04-28T01:41:36.610Z,36.54
2019-04-28T01:44:03.247Z,36.55
2019-04-28T01:46:29.904Z,36.53
2019-04-28T01:48:56.649Z,36.49
2019-04-28T01:51:23.303Z,36.52
2019-04-28T01:53:50.488Z,36.55
2019-04-28T01:56:16.616Z,36.51
2019-04-28T01:58:43.259Z,36.55
2019-04-28T02:01:10.596Z,36.45
2019-04-28T02:03:36.536Z,36.53
2019-04-28T02:06:03.183Z,36.56
2019-04-28T02:08:30.346Z,36.60
2019-04-28T02:13:23.224Z,36.63
2019-04-28T02:15:50.184Z,36.63
2019-04-28T02:18:19.951Z,36.58
2019-04-28T02:20:45.218Z,36.66
2019-04-28T02:23:11.873Z,36.61
2019-04-28T02:25:39.874Z,36.66
2019-04-28T02:28:05.154Z,36.67
2019-04-28T02:30:42.221Z,36.68
2019-04-28T02:33:01.332Z,36.69
2019-04-28T02:35:25.082Z,36.66
2019-04-28T02:37:51.718Z,36.69
2019-04-28T02:40:20.660Z,36.71
2019-04-28T02:42:46.079Z,36.65
2019-04-28T02:45:12.717Z,36.68
2019-04-28T02:47:41.988Z,36.75
2019-04-28T02:50:06.009Z,36.67
2019-04-28T02:52:32.641Z,36.73
2019-04-28T02:54:59.560Z,36.68
2019-04-28T02:57:25.923Z,36.67
2019-04-28T02:59:52.622Z,36.69
2019-04-28T03:02:20.756Z,36.62
2019-04-28T03:07:14.647Z,36.79
2019-04-28T03:09:40.409Z,36.70
2019-04-28T03:12:05.841Z,36.69
2019-04-28T03:14:32.488Z,36.70
2019-04-28T03:17:00.824Z,36.70
2019-04-28T03:19:25.787Z,36.72
2019-04-28T03:21:52.438Z,36.72
2019-04-28T03:24:21.253Z,36.65
2019-04-28T03:26:45.712Z,36.72
2019-04-28T03:29:12.355Z,36.68
2019-04-28T03:32:04.252Z,36.67
2019-04-28T03:34:05.629Z,36.62
2019-04-28T03:36:33.369Z,36.67
2019-04-28T03:39:00.762Z,36.72
2019-04-28T03:41:25.569Z,36.72
2019-04-28T03:43:52.221Z,36.65
2019-04-28T03:46:20.450Z,36.65
2019-04-28T03:48:45.541Z,36.68
2019-04-28T03:51:13.474Z,36.67
2019-04-28T03:53:41.050Z,36.62
2019-04-28T03:56:05.508Z,36.60
2019-04-28T03:58:32.153Z,36.65
2019-04-28T04:01:02.630Z,36.65
2019-04-28T04:03:25.447Z,36.58
2019-04-28T04:05:52.079Z,36.61
2019-04-28T04:08:20.979Z,36.57
2019-04-28T04:10:45.376Z,36.53
2019-04-28T04:13:12.014Z,36.48
2019-04-28T04:15:41.092Z,36.45
2019-04-28T04:18:05.311Z,36.51
2019-04-28T04:20:31.948Z,36.47
2019-04-28T04:23:01.257Z,36.45
2019-04-28T04:25:25.230Z,36.40
2019-04-28T04:27:51.872Z,36.29
2019-04-28T04:30:20.709Z,36.33
2019-04-28T04:32:45.159Z,35.52
2019-04-28T04:35:11.861Z,34.58
2019-04-28T04:37:41.353Z,34.47
2019-04-28T04:40:07.998Z,34.69
2019-04-28T04:42:34.642Z,35.18
2019-04-28T04:45:01.293Z,35.14
2019-04-28T04:47:32.462Z,34.94
2019-04-28T04:49:54.580Z,34.89
2019-04-28T04:54:47.897Z,34.74
2019-04-28T04:57:14.631Z,34.63
2019-04-28T04:59:41.267Z,34.49
2019-04-28T05:02:09.819Z,34.38
2019-04-28T05:04:34.597Z,34.29
2019-04-28T05:07:01.234Z,34.17
2019-04-28T05:09:29.348Z,34.08
2019-04-28T05:11:54.570Z,33.97
2019-04-28T05:16:49.254Z,33.67
2019-04-28T05:19:14.479Z,33.55
2019-04-28T05:21:41.154Z,33.45
2019-04-28T05:24:09.283Z,33.33
2019-04-28T05:26:34.472Z,33.22
2019-04-28T05:29:01.133Z,33.19
2019-04-28T05:31:29.424Z,33.08
2019-04-28T05:33:54.424Z,32.98
2019-04-28T05:36:21.057Z,32.94
2019-04-28T05:38:49.567Z,32.88
2019-04-28T05:41:14.390Z,32.80
2019-04-28T05:43:41.070Z,32.71
2019-04-28T05:46:07.694Z,32.66
2019-04-28T05:48:34.342Z,32.60
2019-04-28T05:51:01.801Z,32.52
2019-04-28T05:53:27.636Z,32.42
2019-04-28T05:55:54.278Z,32.40
2019-04-28T06:00:47.558Z,32.47
2019-04-28T06:03:14.189Z,32.44
2019-04-28T06:05:40.876Z,32.49
2019-04-28T06:08:07.512Z,32.49
2019-04-28T06:10:34.204Z,32.58
2019-04-28T06:13:00.835Z,32.51
2019-04-28T06:15:29.380Z,32.53
2019-04-28T06:17:54.155Z,32.46
2019-04-28T06:20:20.777Z,32.35
2019-04-28T06:22:47.422Z,32.27
2019-04-28T06:25:14.064Z,32.21
2019-04-28T06:27:40.710Z,32.14
2019-04-28T06:30:07.352Z,32.06
2019-04-28T06:35:00.624Z,31.96
2019-04-28T06:37:27.253Z,31.90
2019-04-28T06:39:53.933Z,31.80
2019-04-28T06:42:20.574Z,31.76
2019-04-28T06:44:47.300Z,31.70
2019-04-28T06:47:16.667Z,31.66
2019-04-28T06:49:40.620Z,31.61
2019-04-28T06:52:07.256Z,31.58
2019-04-28T06:54:33.986Z,31.51
2019-04-28T06:57:00.619Z,31.47
2019-04-28T06:59:27.277Z,31.43
2019-04-28T07:01:53.952Z,31.35
2019-04-28T07:04:20.581Z,31.33
2019-04-28T07:09:13.943Z,31.27
2019-04-28T07:11:41.580Z,31.22
2019-04-28T07:14:07.258Z,31.23
2019-04-28T07:16:33.876Z,31.21
2019-04-28T07:19:00.523Z,31.17
2019-04-28T07:21:27.173Z,31.13
2019-04-28T07:23:53.811Z,31.11
2019-04-28T07:26:20.472Z,31.05
2019-04-28T07:28:47.218Z,31.03
2019-04-28T07:31:13.872Z,30.99
2019-04-28T07:33:40.506Z,31.00
2019-04-28T07:36:07.304Z,30.96
2019-04-28T07:38:33.981Z,30.90
2019-04-28T07:41:00.626Z,30.95
2019-04-28T07:43:27.353Z,30.99
2019-04-28T07:45:53.937Z,30.92
2019-04-28T07:48:20.604Z,30.93
2019-04-28T07:50:47.289Z,30.96
2019-04-28T07:55:40.561Z,30.96
2019-04-28T07:58:07.198Z,31.03
2019-04-28T08:00:33.842Z,31.08
2019-04-28T08:03:00.499Z,31.01
2019-04-28T08:05:27.129Z,31.06
2019-04-28T08:07:53.770Z,31.09
2019-04-28T08:10:20.444Z,31.13
2019-04-28T08:12:49.193Z,31.15
2019-04-28T08:15:13.728Z,31.21
2019-04-28T08:17:40.370Z,31.29
2019-04-28T08:20:07.065Z,31.31
2019-04-28T08:22:33.704Z,31.39
2019-04-28T08:25:00.365Z,31.49
2019-04-28T08:29:58.769Z,31.59
2019-04-28T08:32:20.319Z,31.56
2019-04-28T08:34:48.117Z,31.60
2019-04-28T08:37:14.760Z,31.60
2019-04-28T08:39:41.455Z,31.62
2019-04-28T08:42:08.091Z,31.56
2019-04-28T08:44:34.730Z,31.55
2019-04-28T08:47:01.372Z,31.53
2019-04-28T08:49:28.015Z,31.50
2019-04-28T08:51:54.659Z,31.51
2019-04-28T08:54:21.335Z,31.48
2019-04-28T08:56:47.980Z,31.44
2019-04-28T08:59:14.637Z,31.42
2019-04-28T09:04:15.218Z,31.39
2019-04-28T09:06:34.591Z,31.41
2019-04-28T09:09:01.303Z,31.42
2019-04-28T09:11:27.937Z,31.41
2019-04-28T09:13:54.621Z,31.42
2019-04-28T09:16:21.240Z,31.42
2019-04-28T09:18:47.935Z,31.47
2019-04-28T09:21:14.610Z,31.45
2019-04-28T09:23:41.249Z,31.46
2019-04-28T09:26:07.893Z,31.46
2019-04-28T09:28:34.547Z,31.50
2019-04-28T09:31:01.191Z,31.51
2019-04-28T09:33:27.946Z,31.55
2019-04-28T09:38:21.238Z,31.55
2019-04-28T09:40:47.914Z,31.57
2019-04-28T09:43:14.590Z,31.56
2019-04-28T09:45:41.233Z,31.56
2019-04-28T09:48:07.867Z,31.56
2019-04-28T09:50:34.555Z,31.54
2019-04-28T09:53:01.237Z,31.53
2019-04-28T09:55:27.881Z,31.36
2019-04-28T09:57:54.923Z,31.25
2019-04-28T10:00:21.200Z,31.15
2019-04-28T10:02:47.992Z,31.09
2019-04-28T10:05:14.624Z,31.22
2019-04-28T10:07:41.265Z,31.38
2019-04-28T10:10:07.912Z,31.43
2019-04-28T10:12:34.565Z,31.42
2019-04-28T10:15:01.264Z,31.36
2019-04-28T10:17:27.933Z,31.37
2019-04-28T10:19:54.591Z,31.38
2019-04-28T10:22:21.299Z,31.35
2019-04-28T10:24:47.934Z,31.35
2019-04-28T10:27:14.620Z,31.27
2019-04-28T10:29:41.264Z,31.26
2019-04-28T10:32:07.904Z,31.25
2019-04-28T10:34:34.611Z,31.31
2019-04-28T10:37:01.316Z,31.22
2019-04-28T10:39:27.994Z,31.24
2019-04-28T10:41:54.627Z,31.26
2019-04-28T10:46:47.917Z,31.30
2019-04-28T10:49:14.550Z,31.29
2019-04-28T10:51:41.281Z,31.30
2019-04-28T10:54:07.921Z,31.30
2019-04-28T10:56:34.599Z,31.25
2019-04-28T10:59:01.283Z,31.30
2019-04-28T11:01:27.920Z,31.30
2019-04-28T11:03:54.567Z,31.29
2019-04-28T11:06:21.222Z,31.37
2019-04-28T11:08:47.859Z,31.27
2019-04-28T11:11:14.538Z,31.25
2019-04-28T11:13:41.176Z,31.25
2019-04-28T11:16:07.816Z,31.13
2019-04-28T11:18:34.477Z,31.19
2019-04-28T11:21:01.157Z,31.18
2019-04-28T11:23:27.795Z,31.17
2019-04-28T11:25:54.505Z,31.12
2019-04-28T11:28:21.151Z,31.07
2019-04-28T11:30:47.787Z,31.12
2019-04-28T11:33:14.444Z,31.11
2019-04-28T11:35:41.125Z,31.17
2019-04-28T11:38:07.808Z,31.20
2019-04-28T11:40:34.454Z,31.20
2019-04-28T11:43:01.138Z,31.12
2019-04-28T11:45:27.792Z,31.05
2019-04-28T11:47:54.428Z,31.05
2019-04-28T11:50:21.080Z,31.00
2019-04-28T11:52:47.727Z,31.02
2019-04-28T11:55:14.408Z,31.04
2019-04-28T11:57:41.063Z,31.00
2019-04-28T12:00:07.849Z,31.00
2019-04-28T12:02:34.543Z,30.94
2019-04-28T12:07:27.842Z,30.91
2019-04-28T12:10:04.462Z,30.93
2019-04-28T12:12:21.219Z,30.94
2019-04-28T12:14:47.878Z,30.85
2019-04-28T12:17:14.711Z,30.89
2019-04-28T12:19:41.183Z,30.86
2019-04-28T12:22:07.880Z,30.85
2019-04-28T12:24:34.529Z,30.80
2019-04-28T12:27:01.168Z,30.77
2019-04-28T12:29:27.886Z,30.79
2019-04-28T12:31:54.521Z,30.75
2019-04-28T12:34:21.194Z,30.77
2019-04-28T12:36:47.838Z,30.69
2019-04-28T12:39:14.492Z,30.75
2019-04-28T12:41:41.126Z,30.72
2019-04-28T12:44:07.941Z,30.77
2019-04-28T12:46:34.619Z,30.72
2019-04-28T12:49:01.257Z,30.71
2019-04-28T12:51:27.954Z,30.67
2019-04-28T12:53:54.652Z,30.69
2019-04-28T12:56:21.301Z,30.70
2019-04-28T12:58:47.945Z,30.64
2019-04-28T13:01:14.584Z,30.66
2019-04-28T13:03:41.234Z,30.68
2019-04-28T13:06:07.907Z,30.65
2019-04-28T13:08:34.543Z,30.70
2019-04-28T13:11:01.180Z,30.69
2019-04-28T13:13:27.830Z,30.68
2019-04-28T13:15:54.463Z,30.68
2019-04-28T13:18:21.106Z,30.72
2019-04-28T13:20:47.747Z,30.66
2019-04-28T13:23:14.392Z,30.69
2019-04-28T13:28:07.677Z,30.62
2019-04-28T13:30:34.360Z,30.70
2019-04-28T13:33:01.043Z,30.73
2019-04-28T13:35:27.687Z,30.71
2019-04-28T13:37:54.330Z,30.66
2019-04-28T13:40:21.021Z,30.69
2019-04-28T13:42:47.641Z,30.67
2019-04-28T13:45:14.276Z,30.68
2019-04-28T13:47:40.929Z,30.63
2019-04-28T13:50:07.609Z,30.68
2019-04-28T13:52:34.340Z,30.70
2019-04-28T13:55:00.881Z,30.69
2019-04-28T13:57:27.548Z,30.70
2019-04-28T14:02:20.874Z,30.71
2019-04-28T14:04:47.548Z,30.64
2019-04-28T14:07:14.217Z,30.52
2019-04-28T14:09:40.840Z,30.59
2019-04-28T14:12:07.515Z,30.55
2019-04-28T14:14:34.152Z,30.48
2019-04-28T14:17:00.840Z,30.43
2019-04-28T14:19:27.523Z,30.49
2019-04-28T14:21:56.321Z,30.48
2019-04-28T14:24:20.819Z,30.41
2019-04-28T14:26:47.472Z,30.40
2019-04-28T14:29:14.154Z,30.29
2019-04-28T14:31:40.781Z,30.28
2019-04-28T14:36:41.938Z,30.20
2019-04-28T14:39:00.748Z,30.22
2019-04-28T14:41:27.402Z,30.20
2019-04-28T14:43:54.173Z,30.25
2019-04-28T14:46:20.812Z,30.22
2019-04-28T14:48:47.471Z,30.22
2019-04-28T14:51:14.176Z,30.25
2019-04-28T14:53:40.736Z,30.22
2019-04-28T14:56:07.598Z,30.31
2019-04-28T14:58:34.026Z,30.31
2019-04-28T15:01:00.699Z,30.23
2019-04-28T15:03:27.347Z,30.30
2019-04-28T15:05:53.974Z,30.36
2019-04-28T15:08:20.622Z,30.34
2019-04-28T15:10:47.275Z,30.33
2019-04-28T15:13:13.940Z,30.35
2019-04-28T15:15:40.602Z,30.34
2019-04-28T15:18:09.790Z,30.35
2019-04-28T15:23:03.190Z,30.33
2019-04-28T15:25:29.791Z,30.40
2019-04-28T15:27:56.428Z,30.37
2019-04-28T15:30:23.114Z,30.34
2019-04-28T15:32:49.782Z,30.36
2019-04-28T15:35:16.397Z,30.39
2019-04-28T15:37:43.043Z,30.38
2019-04-28T15:40:09.680Z,30.38
2019-04-28T15:42:36.314Z,30.33
2019-04-28T15:45:02.993Z,30.40
2019-04-28T15:47:29.630Z,30.35
2019-04-28T15:49:56.313Z,30.39
2019-04-28T15:52:22.950Z,30.37
2019-04-28T15:57:16.281Z,30.37
2019-04-28T15:59:42.924Z,30.34
2019-04-28T16:02:09.636Z,30.37
2019-04-28T16:04:36.273Z,30.39
2019-04-28T16:07:02.954Z,30.41
2019-04-28T16:09:29.605Z,30.60
2019-04-28T16:11:56.289Z,30.40
2019-04-28T16:14:22.927Z,30.42
2019-04-28T16:16:49.576Z,30.44
2019-04-28T16:19:16.273Z,30.46
2019-04-28T16:21:42.876Z,30.50
2019-04-28T16:24:09.567Z,30.44
2019-04-28T16:26:36.205Z,30.43
2019-04-28T16:29:02.858Z,30.46
2019-04-28T16:31:29.541Z,30.44
2019-04-28T16:33:56.176Z,30.44
2019-04-28T16:36:22.850Z,30.45
2019-04-28T16:38:49.483Z,30.43
2019-04-28T16:41:16.129Z,30.42
2019-04-28T16:43:42.770Z,30.41
2019-04-28T16:46:09.406Z,30.41
2019-04-28T16:48:36.057Z,30.39
2019-04-28T16:51:02.700Z,30.41
2019-04-28T16:53:29.338Z,30.44
2019-04-28T16:55:56.028Z,30.42
2019-04-28T16:58:22.679Z,30.46
2019-04-28T17:00:52.207Z,30.47
2019-04-28T17:03:18.847Z,30.48
2019-04-28T17:05:45.535Z,30.52
2019-04-28T17:08:12.179Z,30.51
2019-04-28T17:10:38.823Z,30.53
2019-04-28T17:13:05.472Z,30.51
2019-04-28T17:17:58.820Z,30.57
2019-04-28T17:20:25.474Z,30.58
2019-04-28T17:22:52.107Z,30.55
2019-04-28T17:25:18.753Z,30.52
2019-04-28T17:27:45.383Z,30.61
2019-04-28T17:30:12.072Z,30.56
2019-04-28T17:32:38.754Z,30.60
2019-04-28T17:35:05.399Z,30.62
2019-04-28T17:37:32.052Z,30.65
2019-04-28T17:39:58.819Z,30.62
2019-04-28T17:42:25.455Z,30.66
2019-04-28T17:44:52.092Z,30.67
2019-04-28T17:47:18.758Z,30.65
2019-04-28T17:52:12.032Z,30.66
2019-04-28T17:54:38.739Z,30.70
2019-04-28T17:57:05.317Z,30.68
2019-04-28T17:59:31.949Z,30.70
2019-04-28T18:01:58.595Z,30.71
2019-04-28T18:04:25.231Z,30.75
2019-04-28T18:06:51.863Z,30.72
2019-04-28T18:09:18.505Z,30.72
2019-04-28T18:14:11.801Z,30.72
2019-04-28T18:16:38.449Z,30.76
2019-04-28T18:19:05.090Z,30.74
2019-04-28T18:21:31.730Z,30.74
2019-04-28T18:26:25.015Z,30.75
2019-04-28T18:28:51.661Z,30.74
2019-04-28T18:31:18.295Z,30.69
2019-04-28T18:33:44.927Z,30.71
2019-04-28T18:36:11.568Z,30.73
2019-04-28T18:38:38.264Z,30.68
2019-04-28T18:41:04.922Z,30.67
2019-04-28T18:43:31.565Z,30.69
2019-04-28T18:45:58.207Z,30.75
2019-04-28T18:48:24.855Z,30.73
2019-04-28T18:50:51.493Z,30.72
2019-04-28T18:53:18.139Z,30.73
2019-04-28T18:55:44.790Z,30.77
2019-04-28T19:00:38.074Z,30.74
2019-04-28T19:03:04.725Z,30.79
2019-04-28T19:05:31.360Z,30.78
2019-04-28T19:07:58.003Z,30.76
2019-04-28T19:10:24.643Z,30.74
2019-04-28T19:12:51.293Z,30.78
2019-04-28T19:15:17.940Z,30.78
2019-04-28T19:17:44.587Z,30.86
2019-04-28T19:20:13.715Z,30.80
2019-04-28T19:22:37.877Z,30.74
2019-04-28T19:25:04.524Z,30.69
2019-04-28T19:27:31.164Z,30.80
2019-04-28T19:29:57.794Z,30.76
2019-04-28T19:32:24.431Z,30.82
2019-04-28T19:34:51.066Z,30.87
2019-04-28T19:37:17.709Z,30.84
2019-04-28T19:39:44.351Z,30.90
2019-04-28T19:42:10.990Z,30.73
2019-04-28T19:44:37.630Z,30.84
2019-04-28T19:47:04.272Z,30.74
2019-04-28T19:49:30.911Z,30.83
2019-04-28T19:51:57.555Z,30.88
2019-04-28T19:54:24.201Z,30.64
2019-04-28T19:56:50.885Z,30.89
2019-04-28T19:59:17.532Z,30.40
2019-04-28T20:01:44.204Z,30.22
2019-04-28T20:04:10.824Z,30.48
2019-04-28T20:06:37.472Z,30.45
2019-04-28T20:09:04.114Z,30.60
2019-04-28T20:11:30.818Z,30.59
2019-04-28T20:13:57.462Z,30.72
2019-04-28T20:16:24.112Z,30.63
2019-04-28T20:18:50.750Z,30.57
2019-04-28T20:21:17.392Z,30.68
2019-04-28T20:23:44.035Z,30.72
2019-04-28T20:26:10.681Z,30.60
2019-04-28T20:28:37.317Z,30.72
2019-04-28T20:31:03.970Z,30.57
2019-04-28T20:33:30.600Z,30.80
2019-04-28T20:35:57.278Z,30.77
2019-04-28T20:38:23.894Z,30.73
2019-04-28T20:40:50.520Z,30.81
2019-04-28T20:43:17.175Z,30.71
2019-04-28T20:45:43.853Z,30.68
2019-04-28T20:48:10.496Z,30.67
2019-04-28T20:50:37.136Z,30.83
2019-04-28T20:55:30.420Z,30.76
2019-04-28T20:57:57.065Z,30.77
2019-04-28T21:00:23.797Z,30.75
2019-04-28T21:02:50.453Z,30.76
2019-04-28T21:05:17.104Z,30.76
2019-04-28T21:07:43.742Z,30.70
2019-04-28T21:10:10.381Z,30.78
2019-04-28T21:12:37.028Z,30.64
2019-04-28T21:15:03.730Z,30.70
2019-04-28T21:17:30.313Z,30.71
2019-04-28T21:19:56.953Z,30.79
2019-04-28T21:22:23.613Z,30.70
2019-04-28T21:24:50.260Z,30.70
2019-04-28T21:27:16.907Z,30.63
2019-04-28T21:29:43.627Z,30.71
2019-04-28T21:32:10.264Z,30.67
2019-04-28T21:34:36.903Z,30.69
2019-04-28T21:37:03.540Z,30.78
2019-04-28T21:39:30.187Z,30.64
2019-04-28T21:41:56.825Z,30.76
2019-04-28T21:44:23.501Z,30.74
2019-04-28T21:46:50.134Z,30.73
2019-04-28T21:49:16.782Z,30.79
2019-04-28T21:51:43.420Z,30.76
2019-04-28T21:54:10.117Z,30.71
2019-04-28T21:56:36.752Z,30.76
2019-04-28T21:59:03.397Z,30.87
2019-04-28T22:01:30.120Z,30.72
2019-04-28T22:03:56.760Z,30.79
2019-04-28T22:06:23.416Z,30.83
2019-04-28T22:08:50.086Z,30.68
2019-04-28T22:11:16.714Z,30.76
2019-04-28T22:16:10.014Z,30.74
2019-04-28T22:18:36.656Z,30.75
2019-04-28T22:21:03.296Z,30.72
2019-04-28T22:23:29.931Z,30.79
2019-04-28T22:25:56.568Z,30.60
2019-04-28T22:28:23.239Z,30.70
2019-04-28T22:30:49.883Z,30.77
2019-04-28T22:33:16.552Z,30.66
2019-04-28T22:35:43.188Z,30.65
2019-04-28T22:38:09.835Z,30.65
2019-04-28T22:40:36.484Z,30.62
2019-04-28T22:43:03.118Z,30.73
2019-04-28T22:45:29.808Z,30.78
2019-04-28T22:50:23.123Z,30.65
2019-04-28T22:52:49.763Z,30.64
2019-04-28T22:55:16.406Z,30.64
2019-04-28T22:57:43.072Z,30.66
2019-04-28T23:00:09.705Z,30.61
2019-04-28T23:02:36.387Z,30.65
2019-04-28T23:05:03.026Z,30.66
2019-04-28T23:07:29.674Z,30.65
2019-04-28T23:09:56.307Z,30.60
2019-04-28T23:12:22.948Z,30.56
2019-04-28T23:14:49.587Z,30.56
2019-04-28T23:17:16.239Z,30.64
2019-04-28T23:19:42.885Z,30.62
2019-04-28T23:22:09.522Z,30.75
2019-04-28T23:24:36.162Z,30.73
2019-04-28T23:27:02.875Z,30.69
2019-04-28T23:29:30.703Z,30.59
2019-04-28T23:31:56.153Z,30.61
2019-04-28T23:34:22.797Z,30.49
2019-04-28T23:36:49.437Z,30.63
2019-04-28T23:39:16.075Z,30.71
2019-04-28T23:41:42.710Z,30.62
2019-04-28T23:44:09.356Z,30.66
2019-04-28T23:46:36.001Z,30.70
2019-04-28T23:49:02.646Z,30.57
2019-04-28T23:51:29.298Z,30.54
2019-04-28T23:53:55.950Z,30.47
2019-04-28T23:56:22.586Z,30.57
2019-04-28T23:58:49.244Z,30.48
